Main page
METAR-TAF:

METAR-TAF

Airports :

Yakutsk Airport

Yakutsk, Russia

latitude: 62-01N, longitude: 129-43E, elevation: 103 m

Current weather observation

The report was made 42 minutes ago, at 21:00 UTC
Wind 2 kt from the Northwest
Temperature -5°C
Humidity 93%
Pressure 1018 hPa
Visibility 10 km or more
Broken clouds at a height of 2000 ft, Cumulonimbus.

METAR: UEEE 172100Z 32001MPS 9999 BKN020CB M05/M06 Q1018 R23L/420050 NOSIG RMK QFE755

Time: 06:42 (21:42 UTC)

Forecast

The report was made 1 hour and 42 minutes ago, at 20:00 UTC
Forecast valid from 17 at 21 UTC to 19 at 03 UTC
Wind 6 kt from the West/Northwest
Visibility 10 km or more
Broken clouds at a height of 1500 ft, Cumulonimbus.
Overcast at a height of 7000 ft
Temporary
from 17 at 21 UTC to 18 at 02 UTC
Visibility: 0300 m
at a height of 200 ft
snow showers, freezing fog

TAF: UEEE 172000Z 1721/1903 30003MPS 9999 BKN015CB OVC070 TEMPO 1721/1802 0300 SHSN FZFG VV002

Weather observations and forecasts of more than 4000 airports (METAR and TAF reports).

The available stations are represented by yellow and red dots on the map.

Hover mouse over dot to see the name of the station.

Then click to see weather observations and forecasts.

To change the map : click on the green buttons with a black cross to zoom in, on the green button with a dash to zoom out, or on the green arrows for adjacent maps.


METAR-TAF: